createdAt,value
2022-11-27T00:01:57.443Z,88.90
2022-11-27T00:04:27.325Z,88.50
2022-11-27T00:06:55.126Z,93.00
2022-11-27T00:09:23.087Z,95.80
2022-11-27T00:11:53.530Z,89.30
2022-11-27T00:14:21.324Z,92.60
2022-11-27T00:16:49.346Z,93.00
2022-11-27T00:19:20.385Z,91.80
2022-11-27T00:21:48.222Z,94.10
2022-11-27T00:24:16.161Z,92.50
2022-11-27T00:26:46.146Z,93.50
2022-11-27T00:29:13.942Z,93.70
2022-11-27T00:31:41.774Z,95.00
2022-11-27T00:34:10.985Z,97.20
2022-11-27T00:36:43.972Z,98.20
2022-11-27T00:39:26.056Z,98.20
2022-11-27T00:44:30.339Z,96.00
2022-11-27T00:46:58.389Z,95.70
2022-11-27T00:49:26.425Z,96.50
2022-11-27T00:51:55.863Z,96.70
2022-11-27T00:54:26.808Z,96.10
2022-11-27T00:56:56.623Z,99.10
2022-11-27T00:59:27.270Z,101.50
2022-11-27T01:01:58.691Z,102.70
2022-11-27T01:04:26.629Z,103.00
2022-11-27T01:06:57.294Z,100.20
2022-11-27T01:09:25.190Z,103.00
2022-11-27T01:11:53.021Z,97.50
2022-11-27T01:14:23.222Z,93.30
2022-11-27T01:16:52.563Z,97.40
2022-11-27T01:19:20.477Z,101.40
2022-11-27T01:21:51.410Z,96.20
2022-11-27T01:24:21.885Z,100.10
2022-11-27T01:26:49.747Z,96.50
2022-11-27T01:29:17.627Z,95.20
2022-11-27T01:31:45.570Z,99.70
2022-11-27T01:34:17.864Z,97.40
2022-11-27T01:39:18.980Z,86.60
2022-11-27T01:41:48.530Z,89.80
2022-11-27T01:44:25.444Z,93.00
2022-11-27T01:47:05.040Z,88.70
2022-11-27T01:49:45.879Z,88.50
2022-11-27T01:52:31.909Z,92.30
2022-11-27T01:55:31.175Z,95.10
2022-11-27T01:58:23.222Z,92.80
2022-11-27T02:00:54.282Z,84.90
2022-11-27T02:03:23.143Z,87.70
2022-11-27T02:05:51.417Z,89.50
2022-11-27T02:08:19.571Z,90.70
2022-11-27T02:10:54.601Z,91.30
2022-11-27T02:13:33.730Z,91.70
2022-11-27T02:16:18.137Z,88.20
2022-11-27T02:19:13.806Z,93.30
2022-11-27T02:22:13.993Z,85.00
2022-11-27T02:24:48.448Z,89.40
2022-11-27T02:27:52.285Z,85.30
2022-11-27T02:30:20.493Z,91.90
2022-11-27T02:32:58.804Z,87.20
2022-11-27T02:35:57.364Z,88.70
2022-11-27T02:38:46.638Z,87.40
2022-11-27T02:41:26.987Z,92.10
2022-11-27T02:43:56.784Z,87.90
2022-11-27T02:46:28.688Z,93.60
2022-11-27T02:49:14.555Z,90.50
2022-11-27T02:51:59.161Z,91.40
2022-11-27T02:54:31.229Z,93.20
2022-11-27T02:57:06.013Z,95.50
2022-11-27T02:59:39.973Z,95.30
2022-11-27T03:02:18.807Z,96.00
2022-11-27T03:04:55.187Z,94.20
2022-11-27T03:07:35.930Z,87.90
2022-11-27T03:10:29.749Z,93.10
2022-11-27T03:13:03.042Z,93.00
2022-11-27T03:15:59.151Z,95.30
2022-11-27T03:18:47.897Z,92.90
2022-11-27T03:21:29.075Z,93.40
2022-11-27T03:23:58.371Z,91.40
2022-11-27T03:26:28.669Z,95.90
2022-11-27T03:28:59.935Z,100.80
2022-11-27T03:31:28.487Z,95.70
2022-11-27T03:33:56.898Z,93.00
2022-11-27T03:36:26.094Z,91.90
2022-11-27T03:38:56.442Z,92.30
2022-11-27T03:41:39.419Z,90.20
2022-11-27T03:44:53.631Z,86.60
2022-11-27T03:48:05.912Z,85.80
2022-11-27T03:51:02.481Z,79.20
2022-11-27T03:54:12.210Z,81.10
2022-11-27T03:57:07.880Z,79.10
2022-11-27T03:59:43.055Z,78.10
2022-11-27T04:02:15.104Z,74.00
2022-11-27T04:04:43.209Z,83.90
2022-11-27T04:07:18.317Z,78.30
2022-11-27T04:09:47.495Z,73.50
2022-11-27T04:12:18.490Z,78.00
2022-11-27T04:14:46.254Z,74.90
2022-11-27T04:17:14.079Z,77.30
2022-11-27T04:19:41.951Z,75.30
2022-11-27T04:22:14.623Z,77.20
2022-11-27T04:24:42.724Z,72.10
2022-11-27T04:27:11.066Z,71.40
2022-11-27T04:29:38.826Z,68.20
2022-11-27T04:32:06.822Z,66.50
2022-11-27T04:34:34.770Z,69.40
2022-11-27T04:37:02.838Z,68.00
2022-11-27T04:39:30.633Z,70.10
2022-11-27T04:42:01.958Z,66.40
2022-11-27T04:44:29.922Z,65.80
2022-11-27T04:46:57.894Z,61.80
2022-11-27T04:49:28.315Z,62.70
2022-11-27T04:51:56.171Z,61.50
2022-11-27T04:54:26.327Z,61.40
2022-11-27T04:56:56.890Z,62.40
2022-11-27T04:59:24.875Z,61.30
2022-11-27T05:01:52.693Z,63.00
2022-11-27T05:04:21.978Z,65.80
2022-11-27T05:06:50.260Z,68.60
2022-11-27T05:09:19.541Z,71.70
2022-11-27T05:11:47.466Z,71.50
2022-11-27T05:14:16.204Z,70.70
2022-11-27T05:16:47.964Z,68.90
2022-11-27T05:19:20.416Z,67.70
2022-11-27T05:21:50.142Z,68.60
2022-11-27T05:24:22.953Z,69.30
2022-11-27T05:26:51.377Z,70.90
2022-11-27T05:29:20.495Z,70.20
2022-11-27T05:31:48.675Z,71.30
2022-11-27T05:34:16.582Z,72.80
2022-11-27T05:36:44.937Z,67.80
2022-11-27T05:39:15.275Z,69.10
2022-11-27T05:41:46.185Z,65.30
2022-11-27T05:44:15.280Z,64.60
2022-11-27T05:46:52.459Z,63.30
2022-11-27T05:49:24.235Z,68.20
2022-11-27T05:51:52.116Z,63.10
2022-11-27T05:54:24.329Z,61.70
2022-11-27T05:59:23.506Z,62.20
2022-11-27T06:02:05.721Z,65.80
2022-11-27T06:07:15.175Z,56.10
2022-11-27T06:09:49.010Z,60.80
2022-11-27T06:15:49.171Z,67.30
2022-11-27T06:18:29.717Z,63.40
2022-11-27T06:21:02.097Z,61.00
2022-11-27T06:23:37.994Z,60.20
2022-11-27T06:26:23.093Z,57.50
2022-11-27T06:28:57.143Z,56.80
2022-11-27T06:31:34.788Z,59.60
2022-11-27T06:34:14.102Z,61.70
2022-11-27T06:37:00.817Z,62.50
2022-11-27T06:39:31.673Z,62.10
2022-11-27T06:42:14.247Z,65.40
2022-11-27T06:45:06.609Z,65.60
2022-11-27T06:47:41.174Z,64.90
2022-11-27T06:50:18.794Z,66.30
2022-11-27T06:52:59.400Z,66.00
2022-11-27T06:55:32.926Z,66.50
2022-11-27T06:58:25.321Z,66.60
2022-11-27T07:01:14.187Z,64.90
2022-11-27T07:03:54.969Z,67.00
2022-11-27T07:06:30.819Z,68.90
2022-11-27T07:09:04.675Z,70.10
2022-11-27T07:12:04.908Z,72.90
2022-11-27T07:14:37.386Z,73.80
2022-11-27T07:17:06.911Z,71.90
2022-11-27T07:19:51.107Z,75.50
2022-11-27T07:22:21.308Z,70.60
2022-11-27T07:24:54.969Z,85.20
2022-11-27T07:27:25.296Z,88.30
2022-11-27T07:29:57.311Z,82.20
2022-11-27T07:34:59.614Z,70.80
2022-11-27T07:37:31.225Z,69.80
2022-11-27T07:40:03.669Z,70.20
2022-11-27T07:42:38.290Z,70.00
2022-11-27T07:45:14.239Z,76.50
2022-11-27T07:47:46.848Z,73.20
2022-11-27T07:50:15.825Z,74.00
2022-11-27T07:52:49.907Z,69.20
2022-11-27T07:55:20.238Z,71.70
2022-11-27T07:57:50.742Z,85.90
2022-11-27T08:00:19.303Z,74.20
2022-11-27T08:02:50.443Z,75.20
2022-11-27T08:05:33.921Z,90.60
2022-11-27T08:08:26.833Z,112.50
2022-11-27T08:11:52.497Z,131.40
2022-11-27T08:14:26.056Z,87.60
2022-11-27T08:17:08.583Z,78.20
2022-11-27T08:20:15.403Z,82.50
2022-11-27T08:23:15.014Z,81.00
2022-11-27T08:25:44.181Z,83.70
2022-11-27T08:28:13.426Z,85.70
2022-11-27T08:30:45.581Z,85.40
2022-11-27T08:36:58.668Z,82.30
2022-11-27T08:39:33.283Z,71.40
2022-11-27T08:42:25.871Z,76.30
2022-11-27T08:45:08.892Z,75.40
2022-11-27T08:47:43.051Z,76.50
2022-11-27T08:50:20.918Z,78.70
2022-11-27T08:52:55.654Z,80.70
2022-11-27T08:55:57.342Z,82.40
2022-11-27T08:58:47.597Z,80.60
2022-11-27T09:02:09.507Z,78.20
2022-11-27T09:05:12.169Z,81.20
2022-11-27T09:08:22.592Z,85.10
2022-11-27T09:11:13.328Z,82.20
2022-11-27T09:17:23.127Z,92.30
2022-11-27T09:20:08.212Z,150.70
2022-11-27T09:22:40.637Z,105.40
2022-11-27T09:25:19.126Z,69.20
2022-11-27T09:27:48.462Z,80.80
2022-11-27T09:30:17.496Z,91.50
2022-11-27T09:32:46.437Z,84.30
2022-11-27T09:35:18.352Z,78.10
2022-11-27T09:38:05.254Z,71.20
2022-11-27T09:41:11.436Z,104.10
2022-11-27T09:43:55.722Z,78.20
2022-11-27T09:46:49.129Z,84.70
2022-11-27T09:49:29.047Z,80.40
2022-11-27T09:52:19.948Z,78.00
2022-11-27T09:55:43.385Z,76.90
2022-11-27T09:58:53.360Z,78.50
2022-11-27T10:01:38.571Z,77.60
2022-11-27T10:04:24.214Z,77.90
2022-11-27T10:07:37.701Z,75.90
2022-11-27T10:10:30.936Z,77.50
2022-11-27T10:13:35.442Z,81.20
2022-11-27T10:16:34.424Z,77.30
2022-11-27T10:19:40.078Z,73.30
2022-11-27T10:22:22.088Z,62.70
2022-11-27T10:25:29.230Z,68.30
2022-11-27T10:28:19.654Z,64.10
2022-11-27T10:30:57.206Z,62.80
2022-11-27T10:33:43.453Z,64.60
2022-11-27T10:36:30.941Z,62.80
2022-11-27T10:39:13.739Z,60.50
2022-11-27T10:42:21.202Z,54.90
2022-11-27T10:45:04.246Z,57.20
2022-11-27T10:47:34.033Z,81.70
2022-11-27T10:50:16.821Z,57.30
2022-11-27T10:56:15.607Z,84.70
2022-11-27T11:01:50.390Z,58.90
2022-11-27T11:04:38.645Z,57.80
2022-11-27T11:07:50.818Z,80.50
2022-11-27T11:10:36.280Z,60.60
2022-11-27T11:13:25.334Z,62.40
2022-11-27T11:16:21.912Z,60.80
2022-11-27T11:19:01.893Z,70.80
2022-11-27T11:21:40.082Z,61.70
2022-11-27T11:24:41.114Z,66.00
2022-11-27T11:27:32.237Z,55.10
2022-11-27T11:30:48.669Z,59.90
2022-11-27T11:33:40.956Z,73.10
2022-11-27T11:36:14.071Z,63.20
2022-11-27T11:38:46.382Z,55.00
2022-11-27T11:41:17.488Z,60.40
2022-11-27T11:44:01.755Z,60.50
2022-11-27T11:46:40.378Z,82.10
2022-11-27T11:49:46.270Z,105.00
2022-11-27T11:53:24.055Z,77.70
2022-11-27T11:59:19.073Z,71.80
2022-11-27T12:02:09.637Z,61.30
2022-11-27T12:05:09.693Z,65.80
2022-11-27T12:08:31.754Z,58.70
2022-11-27T12:11:23.259Z,54.00
2022-11-27T12:14:04.655Z,63.30
2022-11-27T12:16:58.618Z,60.10
2022-11-27T12:20:21.341Z,69.10
2022-11-27T12:23:29.400Z,66.10
2022-11-27T12:26:25.087Z,59.90
2022-11-27T12:29:30.144Z,49.60
2022-11-27T12:32:39.666Z,52.90
2022-11-27T12:35:39.551Z,52.70
2022-11-27T12:38:31.066Z,80.20
2022-11-27T12:41:55.389Z,55.00
2022-11-27T12:44:40.352Z,49.50
2022-11-27T12:47:40.127Z,61.80
2022-11-27T12:50:45.455Z,60.30
2022-11-27T12:53:41.402Z,56.70
2022-11-27T12:56:53.240Z,48.00
2022-11-27T12:59:38.696Z,51.00
2022-11-27T13:02:33.879Z,48.20
2022-11-27T13:05:23.580Z,54.20
2022-11-27T13:07:58.115Z,66.50
2022-11-27T13:10:47.241Z,47.70
2022-11-27T13:13:42.515Z,46.10
2022-11-27T13:16:32.487Z,47.00
2022-11-27T13:19:41.525Z,52.30
2022-11-27T13:22:46.669Z,51.00
2022-11-27T13:25:32.607Z,83.70
2022-11-27T13:28:30.307Z,68.20
2022-11-27T13:31:08.067Z,55.80
2022-11-27T13:33:54.865Z,59.90
2022-11-27T13:36:44.560Z,51.60
2022-11-27T13:39:45.059Z,57.30
2022-11-27T13:42:33.932Z,58.00
2022-11-27T13:49:44.481Z,115.50
2022-11-27T13:52:56.863Z,79.00
2022-11-27T13:55:31.641Z,72.20
2022-11-27T13:58:25.857Z,74.40
2022-11-27T14:01:47.340Z,72.30
2022-11-27T14:04:30.546Z,73.00
2022-11-27T14:07:16.448Z,53.80
2022-11-27T14:10:53.485Z,57.70
2022-11-27T14:13:44.291Z,54.80
2022-11-27T14:16:46.249Z,55.90
2022-11-27T14:20:42.458Z,64.70
2022-11-27T14:23:13.530Z,76.20
2022-11-27T14:25:56.542Z,48.60
2022-11-27T14:28:41.771Z,48.00
2022-11-27T14:31:35.701Z,48.20
2022-11-27T14:34:57.401Z,69.40
2022-11-27T14:37:59.907Z,65.80
2022-11-27T14:40:51.855Z,76.50
2022-11-27T14:43:52.664Z,69.00
2022-11-27T14:46:54.724Z,70.30
2022-11-27T14:49:47.999Z,79.10
2022-11-27T14:52:40.052Z,71.60
2022-11-27T14:55:35.929Z,74.40
2022-11-27T14:58:24.216Z,80.70
2022-11-27T15:01:06.264Z,83.60
2022-11-27T15:03:42.623Z,82.60
2022-11-27T15:06:29.193Z,82.20
2022-11-27T15:09:29.792Z,103.40
2022-11-27T15:12:32.570Z,87.40
2022-11-27T15:15:37.772Z,87.60
2022-11-27T15:18:27.074Z,97.90
2022-11-27T15:21:08.720Z,109.20
2022-11-27T15:23:49.100Z,105.60
2022-11-27T15:26:46.978Z,104.50
2022-11-27T15:30:11.285Z,101.30
2022-11-27T15:33:55.499Z,105.40
2022-11-27T15:36:49.363Z,107.10
2022-11-27T15:39:50.353Z,103.00
2022-11-27T15:42:37.941Z,106.00
2022-11-27T15:45:13.542Z,105.80
2022-11-27T15:48:14.522Z,124.10
2022-11-27T15:54:06.765Z,105.20
2022-11-27T15:56:49.134Z,91.70
2022-11-27T15:59:26.960Z,87.50
2022-11-27T16:01:56.641Z,91.90
2022-11-27T16:04:30.372Z,91.90
2022-11-27T16:07:09.678Z,91.00
2022-11-27T16:09:49.895Z,90.60
2022-11-27T16:12:40.661Z,87.00
2022-11-27T16:15:21.669Z,77.40
2022-11-27T16:18:18.740Z,78.00
2022-11-27T16:20:54.802Z,73.50
2022-11-27T16:23:32.286Z,68.70
2022-11-27T16:26:30.565Z,65.90
2022-11-27T16:29:25.054Z,69.60
2022-11-27T16:32:02.271Z,68.50
2022-11-27T16:35:01.098Z,67.00
2022-11-27T16:37:33.407Z,69.40
2022-11-27T16:40:19.876Z,67.60
2022-11-27T16:43:30.592Z,71.10
2022-11-27T16:46:32.105Z,71.00
2022-11-27T16:49:07.279Z,69.70
2022-11-27T17:03:06.969Z,82.30
2022-11-27T17:05:53.091Z,90.30
2022-11-27T17:08:27.812Z,93.40
2022-11-27T17:11:07.289Z,100.80
2022-11-27T17:13:54.799Z,108.00
2022-11-27T17:16:48.314Z,118.30
2022-11-27T17:19:37.816Z,111.10
2022-11-27T17:22:21.101Z,108.10
2022-11-27T17:24:55.898Z,103.40
2022-11-27T17:28:37.342Z,117.10
2022-11-27T17:31:44.983Z,111.60
2022-11-27T17:34:40.232Z,98.70
2022-11-27T17:37:21.973Z,100.30
2022-11-27T17:40:10.926Z,96.60
2022-11-27T17:42:46.160Z,100.40
2022-11-27T17:45:41.830Z,100.10
2022-11-27T17:48:30.984Z,94.70
2022-11-27T17:55:12.176Z,100.00
2022-11-27T18:05:29.546Z,136.50
2022-11-27T18:08:12.753Z,118.30
2022-11-27T18:10:49.148Z,103.10
2022-11-27T18:13:34.897Z,102.10
2022-11-27T18:16:18.872Z,93.10
2022-11-27T18:18:51.069Z,94.30
2022-11-27T18:21:28.886Z,96.90
2022-11-27T18:29:50.037Z,95.60
2022-11-27T18:32:23.485Z,98.50
2022-11-27T18:35:25.652Z,96.30
2022-11-27T18:38:53.099Z,97.30
2022-11-27T18:41:38.817Z,99.60
2022-11-27T18:44:17.018Z,102.80
2022-11-27T18:46:52.039Z,95.30
2022-11-27T18:49:25.704Z,87.20
2022-11-27T18:52:18.103Z,81.50
2022-11-27T18:58:47.249Z,70.60
2022-11-27T19:01:47.251Z,72.50
2022-11-27T19:04:26.258Z,72.70
2022-11-27T19:07:16.013Z,73.90
2022-11-27T19:09:52.184Z,79.20
2022-11-27T19:13:19.883Z,76.70
2022-11-27T19:15:50.404Z,75.90
2022-11-27T19:22:16.595Z,79.70
2022-11-27T19:24:49.143Z,79.90
2022-11-27T19:27:22.293Z,83.40
2022-11-27T19:30:08.301Z,74.30
2022-11-27T19:32:42.938Z,74.90
2022-11-27T19:35:13.610Z,77.10
2022-11-27T19:37:45.298Z,80.10
2022-11-27T19:40:20.629Z,78.00
2022-11-27T19:43:05.941Z,77.40
2022-11-27T19:48:30.532Z,77.60
2022-11-27T19:51:27.677Z,78.60
2022-11-27T19:59:22.783Z,85.10
2022-11-27T20:01:32.877Z,87.00
2022-11-27T20:04:20.979Z,86.50
2022-11-27T20:07:04.488Z,85.40
2022-11-27T20:09:52.829Z,86.30
2022-11-27T20:12:30.474Z,88.10
2022-11-27T20:15:01.916Z,86.50
2022-11-27T20:17:30.161Z,85.50
2022-11-27T20:20:06.297Z,84.50
2022-11-27T20:22:52.624Z,84.10
2022-11-27T20:26:08.608Z,88.70
2022-11-27T20:29:00.674Z,89.60
2022-11-27T20:31:50.045Z,87.60
2022-11-27T20:35:02.469Z,101.20
2022-11-27T20:38:02.377Z,95.70
2022-11-27T20:40:45.003Z,91.50
2022-11-27T20:44:10.015Z,95.10
2022-11-27T20:46:40.600Z,89.30
2022-11-27T20:49:28.586Z,92.10
2022-11-27T20:52:11.010Z,95.40
2022-11-27T20:54:44.391Z,98.80
2022-11-27T20:57:20.116Z,93.90
2022-11-27T21:00:04.080Z,87.90
2022-11-27T21:03:13.010Z,93.70
2022-11-27T21:09:01.954Z,90.60
2022-11-27T21:13:00.065Z,93.40
2022-11-27T21:15:35.725Z,90.50
2022-11-27T21:18:38.654Z,95.30
2022-11-27T21:21:51.011Z,100.10
2022-11-27T21:25:15.258Z,91.70
2022-11-27T21:28:08.985Z,88.90
2022-11-27T21:31:46.698Z,87.10
2022-11-27T21:34:52.275Z,88.70
2022-11-27T21:38:25.288Z,93.60
2022-11-27T21:41:02.155Z,96.60
2022-11-27T21:43:45.829Z,94.30
2022-11-27T21:46:32.764Z,93.30
2022-11-27T21:49:30.562Z,92.30
2022-11-27T21:52:53.860Z,88.10
2022-11-27T21:55:46.953Z,85.90
2022-11-27T21:59:01.871Z,86.40
2022-11-27T22:01:49.781Z,83.20
2022-11-27T22:04:44.983Z,87.10
2022-11-27T22:07:28.810Z,88.90
2022-11-27T22:10:21.694Z,89.40
2022-11-27T22:13:24.925Z,86.60
2022-11-27T22:16:11.312Z,113.60
2022-11-27T22:19:12.225Z,112.40
2022-11-27T22:22:33.358Z,93.30
2022-11-27T22:25:10.673Z,112.70
2022-11-27T22:28:58.999Z,84.90
2022-11-27T22:32:00.210Z,79.70
2022-11-27T22:34:35.267Z,82.50
2022-11-27T22:40:17.674Z,88.00
2022-11-27T22:43:02.367Z,90.00
2022-11-27T22:45:48.444Z,92.30
2022-11-27T22:48:27.895Z,81.80
2022-11-27T22:51:11.986Z,84.80
2022-11-27T22:54:04.202Z,85.20
2022-11-27T22:56:47.026Z,84.40
2022-11-27T22:59:42.623Z,83.60
2022-11-27T23:02:26.154Z,79.70
2022-11-27T23:05:15.816Z,80.10
2022-11-27T23:08:44.484Z,79.00
2022-11-27T23:11:41.701Z,81.30
2022-11-27T23:14:42.937Z,73.30
2022-11-27T23:21:05.407Z,70.10
2022-11-27T23:24:44.738Z,66.20
2022-11-27T23:31:55.961Z,71.60
2022-11-27T23:34:57.475Z,68.60
2022-11-27T23:38:04.009Z,70.90
2022-11-27T23:48:41.935Z,65.10
2022-11-27T23:51:57.671Z,65.90
2022-11-27T23:55:00.474Z,64.80
2022-11-27T23:57:54.490Z,62.40
